Time;durP1;ratioP1;P1;durP2;ratioP2;P2;SDS_P1;SDS_P2;PMS_P1;PMS_P2;Temp;Humidity;BMP_temperature;BMP_pressure;BME280_temperature;BME280_humidity;BME280_pressure;Samples;Min_cycle;Max_cycle;Signal;HPM_P1;HPM_P2
2024/03/18 00:01:41;;;;;;;;;24.67;23.33;;;;;;;;5079174;27;45541;-57
2024/03/18 00:04:07;;;;;;;;;31.67;23.33;;;;;;;;5071212;27;46193;-57
2024/03/18 00:06:32;;;;;;;;;29.33;27.00;;;;;;;;5075700;27;45346;-57
2024/03/18 00:08:57;;;;;;;;;38.00;33.67;;;;;;;;5082322;27;45624;-58
2024/03/18 00:11:22;;;;;;;;;33.33;29.33;;;;;;;;5092298;27;45509;-57
2024/03/18 00:13:47;;;;;;;;;31.67;28.33;;;;;;;;5086619;27;47232;-57
2024/03/18 00:16:13;;;;;;;;;25.33;25.00;;;;;;;;5080577;27;45223;-57
2024/03/18 00:18:39;;;;;;;;;28.00;26.00;;;;;;;;5088214;27;45416;-57
2024/03/18 00:21:04;;;;;;;;;32.33;27.00;;;;;;;;5080449;27;45529;-57
2024/03/18 00:23:29;;;;;;;;;25.33;25.33;;;;;;;;5083325;27;46175;-57
2024/03/18 00:25:54;;;;;;;;;31.33;29.00;;;;;;;;5085804;27;45234;-57
2024/03/18 00:28:20;;;;;;;;;29.00;27.00;;;;;;;;5080368;27;45827;-57
2024/03/18 00:30:45;;;;;;;;;29.67;28.67;;;;;;;;5090659;27;45337;-57
2024/03/18 00:33:11;;;;;;;;;31.00;27.00;;;;;;;;5090834;27;46801;-57
2024/03/18 00:35:36;;;;;;;;;26.67;25.00;;;;;;;;5086786;27;45470;-57
2024/03/18 00:38:01;;;;;;;;;28.00;24.33;;;;;;;;5080525;27;45258;-58
2024/03/18 00:40:26;;;;;;;;;29.00;27.00;;;;;;;;5089894;27;45450;-57
2024/03/18 00:42:51;;;;;;;;;24.00;22.67;;;;;;;;5086676;27;45290;-57
2024/03/18 00:45:17;;;;;;;;;27.67;24.67;;;;;;;;5086325;27;45396;-57
2024/03/18 00:47:42;;;;;;;;;28.00;25.67;;;;;;;;5084818;27;45278;-57
2024/03/18 00:50:11;;;;;;;;;30.00;27.67;;;;;;;;5088972;27;45416;-57
2024/03/18 00:52:36;;;;;;;;;30.67;25.00;;;;;;;;5085383;27;46214;-57
2024/03/18 00:55:02;;;;;;;;;22.67;15.00;;;;;;;;5086691;27;45214;-57
2024/03/18 00:57:27;;;;;;;;;29.00;22.33;;;;;;;;5090797;27;45292;-57
2024/03/18 00:59:52;;;;;;;;;27.33;23.67;;;;;;;;5081019;27;45346;-57
2024/03/18 01:02:17;;;;;;;;;25.00;23.33;;;;;;;;5084013;27;46227;-57
2024/03/18 01:04:43;;;;;;;;;20.33;20.33;;;;;;;;5085317;27;45318;-57
2024/03/18 01:07:08;;;;;;;;;25.33;21.67;;;;;;;;5080336;27;45365;-57
2024/03/18 01:09:33;;;;;;;;;24.67;21.00;;;;;;;;5087829;27;45334;-57
2024/03/18 01:11:58;;;;;;;;;29.00;23.67;;;;;;;;5082692;27;48065;-57
2024/03/18 01:14:24;;;;;;;;;27.00;24.00;;;;;;;;5090953;27;45410;-57
2024/03/18 01:16:49;;;;;;;;;20.33;17.33;;;;;;;;5084293;27;45339;-57
2024/03/18 01:19:15;;;;;;;;;18.33;17.67;;;;;;;;5087867;27;45256;-57
2024/03/18 01:21:40;;;;;;;;;19.33;17.00;;;;;;;;5089019;27;45255;-57
2024/03/18 01:24:05;;;;;;;;;22.00;18.67;;;;;;;;5089496;27;45324;-57
2024/03/18 01:26:30;;;;;;;;;21.00;20.33;;;;;;;;5091057;27;45267;-57
2024/03/18 01:28:55;;;;;;;;;16.33;16.00;;;;;;;;5094166;27;45248;-57
2024/03/18 01:31:21;;;;;;;;;17.00;17.00;;;;;;;;5091708;27;45384;-57
2024/03/18 01:33:47;;;;;;;;;18.67;16.33;;;;;;;;5076905;27;45887;-57
2024/03/18 01:36:12;;;;;;;;;14.67;13.67;;;;;;;;5079172;27;45563;-57
2024/03/18 01:38:37;;;;;;;;;17.33;15.67;;;;;;;;5087547;27;45349;-57
2024/03/18 01:41:02;;;;;;;;;15.33;15.00;;;;;;;;5081992;27;46163;-58
2024/03/18 01:43:28;;;;;;;;;18.67;16.33;;;;;;;;5087512;27;45379;-57
2024/03/18 01:45:53;;;;;;;;;19.33;16.33;;;;;;;;5083782;27;45346;-56
2024/03/18 01:48:18;;;;;;;;;19.67;18.33;;;;;;;;5086731;27;45401;-56
2024/03/18 01:50:46;;;;;;;;;18.00;17.00;;;;;;;;5088661;27;45473;-56
2024/03/18 01:53:12;;;;;;;;;20.33;17.33;;;;;;;;5093542;27;45637;-56
2024/03/18 01:55:38;;;;;;;;;16.33;15.67;;;;;;;;5092375;27;45480;-57
2024/03/18 01:58:03;;;;;;;;;16.00;15.67;;;;;;;;5089448;27;45289;-57
2024/03/18 02:00:32;;;;;;;;;14.67;14.67;;;;;;;;5084111;27;46420;-56
2024/03/18 02:03:01;;;;;;;;;17.67;17.67;;;;;;;;5087484;27;45517;-56
2024/03/18 02:05:26;;;;;;;;;17.00;16.00;;;;;;;;5081072;27;46635;-57
2024/03/18 02:07:52;;;;;;;;;19.33;18.00;;;;;;;;5082201;27;45514;-56
2024/03/18 02:10:17;;;;;;;;;16.67;16.00;;;;;;;;5076177;27;45477;-56
2024/03/18 02:12:42;;;;;;;;;23.67;19.67;;;;;;;;5080087;27;45322;-56
2024/03/18 02:15:07;;;;;;;;;21.67;17.67;;;;;;;;5088437;27;45182;-57
2024/03/18 02:17:33;;;;;;;;;21.00;17.67;;;;;;;;5082644;27;45397;-57
2024/03/18 02:19:58;;;;;;;;;18.00;16.00;;;;;;;;5081719;27;46572;-56
2024/03/18 02:22:23;;;;;;;;;17.67;17.67;;;;;;;;5082036;27;45383;-57
2024/03/18 02:24:48;;;;;;;;;16.00;16.00;;;;;;;;5091573;27;45408;-56
2024/03/18 02:27:13;;;;;;;;;17.33;17.00;;;;;;;;5087945;27;45276;-57
2024/03/18 02:29:39;;;;;;;;;15.67;14.67;;;;;;;;5087863;27;46663;-57
2024/03/18 02:32:05;;;;;;;;;16.33;16.33;;;;;;;;5091972;27;45344;-57
2024/03/18 02:34:30;;;;;;;;;16.00;14.33;;;;;;;;5080577;27;45450;-57
2024/03/18 02:36:56;;;;;;;;;16.67;14.67;;;;;;;;5086615;27;45317;-57
2024/03/18 02:39:24;;;;;;;;;20.00;18.00;;;;;;;;5084746;27;45395;-57
2024/03/18 02:41:50;;;;;;;;;15.67;14.00;;;;;;;;5085348;27;45390;-57
2024/03/18 02:44:16;;;;;;;;;16.33;16.33;;;;;;;;5081395;27;45349;-57
2024/03/18 02:46:41;;;;;;;;;15.67;14.33;;;;;;;;5089652;27;45572;-57
2024/03/18 02:49:06;;;;;;;;;16.67;13.67;;;;;;;;5091018;27;45435;-56
2024/03/18 02:51:32;;;;;;;;;14.67;13.33;;;;;;;;5081704;27;45434;-57
2024/03/18 02:53:57;;;;;;;;;14.33;12.00;;;;;;;;5091128;27;45440;-57
2024/03/18 02:56:22;;;;;;;;;12.67;12.67;;;;;;;;5084140;27;45420;-57
2024/03/18 02:58:47;;;;;;;;;12.00;12.00;;;;;;;;5086659;27;45255;-56
2024/03/18 03:01:12;;;;;;;;;9.67;9.67;;;;;;;;5085323;27;45590;-57
2024/03/18 03:03:38;;;;;;;;;13.67;11.33;;;;;;;;5079290;27;45635;-57
2024/03/18 03:06:04;;;;;;;;;10.33;9.00;;;;;;;;5079193;27;45565;-57
2024/03/18 03:08:29;;;;;;;;;9.67;9.67;;;;;;;;5086063;27;46502;-57
2024/03/18 03:10:54;;;;;;;;;14.67;12.00;;;;;;;;5088482;27;45431;-56
2024/03/18 03:13:20;;;;;;;;;10.67;10.67;;;;;;;;5085585;27;45371;-56
2024/03/18 03:15:45;;;;;;;;;11.33;11.00;;;;;;;;5080654;27;45320;-57
2024/03/18 03:18:11;;;;;;;;;9.00;8.00;;;;;;;;5082718;27;47031;-57
2024/03/18 03:20:36;;;;;;;;;14.00;10.33;;;;;;;;5084273;27;45242;-57
2024/03/18 03:23:01;;;;;;;;;8.67;8.67;;;;;;;;5090364;27;45518;-57
2024/03/18 03:25:26;;;;;;;;;9.67;9.67;;;;;;;;5082648;27;45503;-57
2024/03/18 03:27:58;;;;;;;;;8.67;6.67;;;;;;;;5087119;27;46386;-57
2024/03/18 03:30:23;;;;;;;;;13.67;10.33;;;;;;;;5082054;27;45355;-57
2024/03/18 03:32:48;;;;;;;;;8.33;6.67;;;;;;;;5075164;27;46415;-57
2024/03/18 03:35:14;;;;;;;;;9.00;6.67;;;;;;;;5083858;27;45357;-57
2024/03/18 03:37:39;;;;;;;;;10.67;9.67;;;;;;;;5088603;27;45595;-57
2024/03/18 03:40:04;;;;;;;;;11.00;8.00;;;;;;;;5085632;27;45400;-57
2024/03/18 03:42:29;;;;;;;;;7.33;6.67;;;;;;;;5074717;27;45504;-58
2024/03/18 03:44:55;;;;;;;;;10.00;10.00;;;;;;;;5081164;27;45401;-57
2024/03/18 03:47:20;;;;;;;;;9.67;9.67;;;;;;;;5082052;27;46980;-56
2024/03/18 03:49:45;;;;;;;;;15.33;11.67;;;;;;;;5082023;27;45259;-57
2024/03/18 03:52:10;;;;;;;;;13.33;12.33;;;;;;;;5088173;27;45594;-57
2024/03/18 03:54:35;;;;;;;;;12.33;11.00;;;;;;;;5092777;27;45493;-57
2024/03/18 03:57:00;;;;;;;;;11.33;10.00;;;;;;;;5093340;27;45502;-57
2024/03/18 03:59:26;;;;;;;;;11.67;11.00;;;;;;;;5084385;27;45198;-57
2024/03/18 04:01:51;;;;;;;;;15.00;14.00;;;;;;;;5088892;27;45391;-57
2024/03/18 04:04:16;;;;;;;;;12.67;11.67;;;;;;;;5086200;27;45865;-58
2024/03/18 04:06:41;;;;;;;;;12.33;11.33;;;;;;;;5093397;27;45714;-57
2024/03/18 04:09:07;;;;;;;;;11.67;11.33;;;;;;;;5088520;27;45508;-57
2024/03/18 04:11:32;;;;;;;;;13.33;12.00;;;;;;;;5092771;27;45389;-57
2024/03/18 04:13:57;;;;;;;;;14.67;12.00;;;;;;;;5097180;27;45358;-57
2024/03/18 04:16:23;;;;;;;;;15.33;12.00;;;;;;;;5088720;27;45453;-57
2024/03/18 04:18:48;;;;;;;;;13.00;11.00;;;;;;;;5082104;27;45413;-57
2024/03/18 04:21:13;;;;;;;;;9.33;9.33;;;;;;;;5091723;27;45434;-57
2024/03/18 04:23:39;;;;;;;;;12.33;10.67;;;;;;;;5092675;27;45447;-57
2024/03/18 04:26:08;;;;;;;;;10.00;9.67;;;;;;;;5093170;27;46486;-57
2024/03/18 04:28:33;;;;;;;;;10.33;10.33;;;;;;;;5087138;27;45451;-57
2024/03/18 04:31:00;;;;;;;;;14.33;10.33;;;;;;;;5090992;27;45381;-57
2024/03/18 04:33:25;;;;;;;;;13.33;13.33;;;;;;;;5091059;27;45584;-57
2024/03/18 04:35:51;;;;;;;;;13.67;10.67;;;;;;;;5081595;27;46529;-57
2024/03/18 04:38:16;;;;;;;;;17.33;16.67;;;;;;;;5087895;27;45546;-56
2024/03/18 04:40:41;;;;;;;;;17.67;12.33;;;;;;;;5094226;27;45290;-56
2024/03/18 04:43:06;;;;;;;;;13.33;11.67;;;;;;;;5090697;27;45734;-57
2024/03/18 04:45:31;;;;;;;;;12.00;12.00;;;;;;;;5094015;27;46051;-57
2024/03/18 04:47:57;;;;;;;;;17.67;15.67;;;;;;;;5084877;27;45401;-57
2024/03/18 04:50:23;;;;;;;;;20.33;15.33;;;;;;;;5094015;27;45457;-57
2024/03/18 04:52:49;;;;;;;;;15.67;14.00;;;;;;;;5088063;27;45509;-57
2024/03/18 04:55:15;;;;;;;;;15.33;14.33;;;;;;;;5088312;27;45973;-57
2024/03/18 04:57:40;;;;;;;;;14.33;14.33;;;;;;;;5087240;27;45405;-57
2024/03/18 05:00:09;;;;;;;;;16.33;16.33;;;;;;;;5088725;27;46302;-57
2024/03/18 05:02:34;;;;;;;;;15.33;15.00;;;;;;;;5090206;27;45317;-58
2024/03/18 05:05:00;;;;;;;;;15.67;14.67;;;;;;;;5086510;27;46056;-56
2024/03/18 05:07:25;;;;;;;;;16.33;15.67;;;;;;;;5090112;27;45293;-57
2024/03/18 05:09:53;;;;;;;;;19.00;17.33;;;;;;;;5088699;27;45558;-56
2024/03/18 05:12:18;;;;;;;;;22.00;19.00;;;;;;;;5083928;27;45481;-56
2024/03/18 05:14:43;;;;;;;;;16.33;15.33;;;;;;;;5097357;27;45522;-56
2024/03/18 05:17:08;;;;;;;;;16.33;16.33;;;;;;;;5083757;27;45507;-56
2024/03/18 05:19:34;;;;;;;;;17.33;15.67;;;;;;;;5078192;27;45432;-56
2024/03/18 05:21:59;;;;;;;;;16.00;16.00;;;;;;;;5078982;27;45429;-56
2024/03/18 05:24:24;;;;;;;;;20.33;17.67;;;;;;;;5090099;27;46249;-57
2024/03/18 05:26:50;;;;;;;;;18.00;16.33;;;;;;;;5087310;27;45372;-57
2024/03/18 05:29:15;;;;;;;;;16.67;14.67;;;;;;;;5091218;27;45688;-57
2024/03/18 05:31:41;;;;;;;;;19.67;19.00;;;;;;;;5082754;27;45415;-57
2024/03/18 05:34:08;;;;;;;;;19.00;17.00;;;;;;;;5078350;27;45406;-57
2024/03/18 05:36:33;;;;;;;;;17.67;17.33;;;;;;;;5089876;27;45289;-57
2024/03/18 05:38:59;;;;;;;;;17.00;15.67;;;;;;;;5087626;27;45387;-57
2024/03/18 05:41:24;;;;;;;;;19.67;18.67;;;;;;;;5082441;27;45654;-57
2024/03/18 05:43:50;;;;;;;;;20.00;18.67;;;;;;;;5090328;27;46299;-57
2024/03/18 05:46:15;;;;;;;;;21.67;20.67;;;;;;;;5082339;27;45420;-57
2024/03/18 05:48:40;;;;;;;;;20.67;19.00;;;;;;;;5085676;27;45430;-58
2024/03/18 05:51:06;;;;;;;;;20.00;18.33;;;;;;;;5076919;27;45521;-57
2024/03/18 05:53:31;;;;;;;;;19.67;17.67;;;;;;;;5080523;27;47107;-57
2024/03/18 05:55:56;;;;;;;;;22.33;20.00;;;;;;;;5090547;27;45333;-57
2024/03/18 05:58:21;;;;;;;;;21.00;17.67;;;;;;;;5081259;27;45923;-57
2024/03/18 06:00:47;;;;;;;;;23.67;19.67;;;;;;;;5080935;27;45476;-56
2024/03/18 06:03:12;;;;;;;;;18.00;17.00;;;;;;;;5074746;27;45658;-57
2024/03/18 06:05:38;;;;;;;;;19.33;19.00;;;;;;;;5081964;27;45406;-57
2024/03/18 06:08:04;;;;;;;;;23.00;17.33;;;;;;;;5085505;27;45412;-59
2024/03/18 06:10:29;;;;;;;;;19.33;19.00;;;;;;;;5083811;27;45542;-57
2024/03/18 06:12:54;;;;;;;;;21.33;16.67;;;;;;;;5080208;27;45484;-57
2024/03/18 06:15:19;;;;;;;;;21.00;18.67;;;;;;;;5084281;27;45497;-57
2024/03/18 06:17:44;;;;;;;;;21.00;19.33;;;;;;;;5081498;27;45474;-58
2024/03/18 06:20:11;;;;;;;;;22.67;20.00;;;;;;;;5076800;27;45674;-57
2024/03/18 06:22:39;;;;;;;;;23.67;18.00;;;;;;;;5077418;27;46448;-58
2024/03/18 06:27:52;;;;;;;;;19.33;17.00;;;;;;;;5078882;27;45382;-58
2024/03/18 06:30:18;;;;;;;;;20.33;18.67;;;;;;;;5086519;27;45400;-58
2024/03/18 06:32:43;;;;;;;;;23.67;21.67;;;;;;;;5076594;27;45967;-57
2024/03/18 06:35:09;;;;;;;;;22.67;18.33;;;;;;;;5071175;28;45591;-58
2024/03/18 06:37:35;;;;;;;;;20.33;17.67;;;;;;;;5076297;28;45227;-58
2024/03/18 06:40:02;;;;;;;;;23.33;20.33;;;;;;;;5084252;27;45448;-58
2024/03/18 06:42:27;;;;;;;;;18.67;17.33;;;;;;;;5088676;27;46314;-57
2024/03/18 06:44:52;;;;;;;;;24.33;20.67;;;;;;;;5079324;27;45322;-57
2024/03/18 06:47:17;;;;;;;;;27.00;22.33;;;;;;;;5078953;27;45337;-58
2024/03/18 06:49:43;;;;;;;;;20.67;19.00;;;;;;;;5078175;27;45224;-57
2024/03/18 06:52:08;;;;;;;;;18.67;17.67;;;;;;;;5074085;27;46306;-58
2024/03/18 06:54:33;;;;;;;;;23.67;19.33;;;;;;;;5079444;27;45288;-58
2024/03/18 06:56:58;;;;;;;;;23.33;22.00;;;;;;;;5066828;27;45369;-58
2024/03/18 06:59:24;;;;;;;;;24.00;19.00;;;;;;;;5070866;28;45663;-58
2024/03/18 07:01:51;;;;;;;;;22.33;19.67;;;;;;;;5074824;27;46263;-58
2024/03/18 07:04:16;;;;;;;;;25.33;20.67;;;;;;;;5068053;27;45326;-57
2024/03/18 07:06:42;;;;;;;;;14.33;13.00;;;;;;;;5075282;28;45421;-58
2024/03/18 07:09:07;;;;;;;;;16.67;15.67;;;;;;;;5071669;27;45397;-57
2024/03/18 07:11:32;;;;;;;;;17.00;15.33;;;;;;;;5087321;27;46130;-57
2024/03/18 07:13:57;;;;;;;;;18.67;17.33;;;;;;;;5079115;27;45418;-58
2024/03/18 07:16:23;;;;;;;;;20.33;17.67;;;;;;;;5075564;27;45572;-57
2024/03/18 07:18:48;;;;;;;;;16.00;16.00;;;;;;;;5079327;27;45347;-57
2024/03/18 07:21:13;;;;;;;;;17.33;14.33;;;;;;;;5078305;27;45799;-58
2024/03/18 07:23:39;;;;;;;;;16.00;16.00;;;;;;;;5078459;27;45299;-57
2024/03/18 07:26:04;;;;;;;;;10.33;10.33;;;;;;;;5077401;28;45402;-58
2024/03/18 07:28:33;;;;;;;;;12.67;12.67;;;;;;;;5076674;28;45345;-58
2024/03/18 07:30:58;;;;;;;;;14.33;14.33;;;;;;;;5076707;27;46285;-54
2024/03/18 07:33:23;;;;;;;;;19.00;14.33;;;;;;;;5074111;27;45548;-54
2024/03/18 07:35:51;;;;;;;;;14.67;13.33;;;;;;;;5070612;27;45609;-55
2024/03/18 07:38:16;;;;;;;;;13.33;13.33;;;;;;;;5069695;27;45607;-56
2024/03/18 07:40:41;;;;;;;;;15.00;13.67;;;;;;;;5070211;27;45437;-54
2024/03/18 07:43:11;;;;;;;;;12.67;12.67;;;;;;;;5076234;28;45575;-55
2024/03/18 07:45:36;;;;;;;;;12.33;11.33;;;;;;;;5074308;27;46373;-55
2024/03/18 07:48:04;;;;;;;;;17.33;14.00;;;;;;;;5078568;27;45714;-55
2024/03/18 07:50:30;;;;;;;;;14.00;10.33;;;;;;;;5084138;27;47420;-55
2024/03/18 07:52:55;;;;;;;;;9.67;9.67;;;;;;;;5073984;27;45417;-55
2024/03/18 07:55:21;;;;;;;;;8.33;6.67;;;;;;;;5078352;27;45667;-55
2024/03/18 07:57:46;;;;;;;;;17.00;12.00;;;;;;;;5072211;27;45646;-54
2024/03/18 08:00:11;;;;;;;;;10.33;10.33;;;;;;;;5071813;27;45571;-55
2024/03/18 08:02:36;;;;;;;;;13.33;12.33;;;;;;;;5074648;27;45727;-55
2024/03/18 08:05:02;;;;;;;;;12.33;12.33;;;;;;;;5080604;27;45198;-63
2024/03/18 08:07:27;;;;;;;;;15.33;12.00;;;;;;;;5082833;27;45583;-64
2024/03/18 08:09:52;;;;;;;;;13.00;11.00;;;;;;;;5080761;27;45544;-64
2024/03/18 08:12:17;;;;;;;;;13.00;12.00;;;;;;;;5073054;27;45431;-63
2024/03/18 08:14:44;;;;;;;;;10.00;8.00;;;;;;;;5084780;27;45411;-63
2024/03/18 08:17:09;;;;;;;;;11.00;9.00;;;;;;;;5074349;27;45479;-62
2024/03/18 08:19:35;;;;;;;;;12.00;9.67;;;;;;;;5078043;28;45967;-62
2024/03/18 08:22:00;;;;;;;;;11.33;9.67;;;;;;;;5075491;27;45321;-64
2024/03/18 08:24:25;;;;;;;;;9.33;7.33;;;;;;;;5076482;28;45441;-60
2024/03/18 08:26:54;;;;;;;;;11.67;11.67;;;;;;;;5076522;27;45495;-64
2024/03/18 08:29:19;;;;;;;;;9.67;9.67;;;;;;;;5078057;27;45333;-61
2024/03/18 08:31:44;;;;;;;;;10.67;7.67;;;;;;;;5078579;28;45437;-61
2024/03/18 08:34:09;;;;;;;;;12.33;10.00;;;;;;;;5081870;27;45465;-61
2024/03/18 08:36:35;;;;;;;;;12.00;10.00;;;;;;;;5078276;27;45416;-61
2024/03/18 08:39:00;;;;;;;;;11.67;8.67;;;;;;;;5080240;28;46381;-61
2024/03/18 08:41:25;;;;;;;;;7.67;7.00;;;;;;;;5079631;27;45206;-61
2024/03/18 08:43:51;;;;;;;;;8.00;6.00;;;;;;;;5082010;27;45282;-61
2024/03/18 08:46:16;;;;;;;;;6.33;5.67;;;;;;;;5082944;27;45290;-61
2024/03/18 08:48:42;;;;;;;;;6.33;5.67;;;;;;;;5079824;27;46545;-61
2024/03/18 08:51:07;;;;;;;;;6.67;6.67;;;;;;;;5078519;27;45789;-61
2024/03/18 08:53:32;;;;;;;;;6.67;5.67;;;;;;;;5079765;27;45343;-61
2024/03/18 08:55:57;;;;;;;;;3.00;3.00;;;;;;;;5079583;27;45344;-61
2024/03/18 08:58:23;;;;;;;;;3.33;3.33;;;;;;;;5081125;27;45409;-61
2024/03/18 09:00:50;;;;;;;;;4.33;4.33;;;;;;;;5078184;28;45476;-61
2024/03/18 09:03:15;;;;;;;;;4.00;3.25;;;;;;;;5081213;27;45397;-61
2024/03/18 09:05:40;;;;;;;;;2.00;2.00;;;;;;;;5076817;27;45361;-61
2024/03/18 09:08:05;;;;;;;;;4.00;2.75;;;;;;;;5077771;28;45495;-61
2024/03/18 09:10:31;;;;;;;;;4.25;3.00;;;;;;;;5079261;27;45424;-61
2024/03/18 09:12:56;;;;;;;;;5.67;3.00;;;;;;;;5078357;28;45279;-61
2024/03/18 09:15:22;;;;;;;;;3.50;1.25;;;;;;;;5075265;27;45524;-61
2024/03/18 09:17:47;;;;;;;;;2.00;2.00;;;;;;;;5070508;27;46270;-61
2024/03/18 09:20:16;;;;;;;;;9.75;2.25;;;;;;;;5073823;28;45284;-60
2024/03/18 09:22:42;;;;;;;;;2.75;2.75;;;;;;;;5081189;27;45553;-60
2024/03/18 09:25:09;;;;;;;;;3.00;3.00;;;;;;;;5080806;28;45547;-60
2024/03/18 09:27:34;;;;;;;;;3.25;2.50;;;;;;;;5081193;27;47404;-60
2024/03/18 09:30:00;;;;;;;;;5.00;3.75;;;;;;;;5079953;27;45373;-60
2024/03/18 09:32:25;;;;;;;;;4.00;2.75;;;;;;;;5079713;28;45432;-61
2024/03/18 09:34:50;;;;;;;;;3.75;3.50;;;;;;;;5080023;27;45271;-61
2024/03/18 09:37:16;;;;;;;;;2.25;0.25;;;;;;;;5080369;28;45343;-61
2024/03/18 09:39:41;;;;;;;;;7.50;4.75;;;;;;;;5080093;28;45317;-60
2024/03/18 09:42:07;;;;;;;;;7.00;4.00;;;;;;;;5079583;28;45230;-61
2024/03/18 09:44:35;;;;;;;;;3.50;2.75;;;;;;;;5078612;27;45184;-60
2024/03/18 09:47:00;;;;;;;;;2.50;2.50;;;;;;;;5077402;27;47233;-61
2024/03/18 09:49:25;;;;;;;;;4.00;4.00;;;;;;;;5076505;27;45481;-63
2024/03/18 09:51:51;;;;;;;;;6.50;4.00;;;;;;;;5080101;27;45309;-61
2024/03/18 09:54:17;;;;;;;;;7.25;3.25;;;;;;;;5078686;28;45361;-61
2024/03/18 09:56:58;;;;;;;;;2.00;2.00;;;;;;;;5080606;27;46181;-61
2024/03/18 09:59:24;;;;;;;;;5.00;4.00;;;;;;;;5077748;27;45384;-61
2024/03/18 10:01:49;;;;;;;;;5.50;4.50;;;;;;;;5081060;27;45376;-62
2024/03/18 10:04:14;;;;;;;;;3.75;2.75;;;;;;;;5078410;27;45217;-61
2024/03/18 10:06:39;;;;;;;;;2.50;2.50;;;;;;;;5080481;27;47053;-61
2024/03/18 10:09:05;;;;;;;;;6.50;3.50;;;;;;;;5076521;27;45319;-61
2024/03/18 10:11:30;;;;;;;;;4.25;2.50;;;;;;;;5076977;27;45294;-62
2024/03/18 10:13:55;;;;;;;;;4.00;4.00;;;;;;;;5076389;28;45329;-62
2024/03/18 10:16:21;;;;;;;;;4.00;2.00;;;;;;;;5074726;28;47344;-62
2024/03/18 10:18:47;;;;;;;;;3.00;3.00;;;;;;;;5077574;27;45400;-61
2024/03/18 10:21:12;;;;;;;;;5.25;3.75;;;;;;;;5076512;27;45364;-61
2024/03/18 10:23:39;;;;;;;;;3.00;3.00;;;;;;;;5076638;27;45448;-61
2024/03/18 10:26:05;;;;;;;;;3.00;3.00;;;;;;;;5076038;27;46066;-62
2024/03/18 10:28:30;;;;;;;;;3.25;3.25;;;;;;;;5080239;27;45324;-62
2024/03/18 10:30:56;;;;;;;;;3.25;3.00;;;;;;;;5080484;27;45451;-61
2024/03/18 10:33:22;;;;;;;;;3.00;3.00;;;;;;;;5070265;28;45560;-62
2024/03/18 10:35:48;;;;;;;;;2.50;2.50;;;;;;;;5080188;27;45361;-62
2024/03/18 10:38:33;;;;;;;;;9.25;5.75;;;;;;;;5079279;28;45404;-62
2024/03/18 10:41:00;;;;;;;;;5.25;4.00;;;;;;;;5077017;27;45410;-62
2024/03/18 10:43:31;;;;;;;;;6.00;5.00;;;;;;;;5075980;28;45480;-62
2024/03/18 10:45:56;;;;;;;;;3.25;3.25;;;;;;;;5080528;27;47212;-62
2024/03/18 10:48:21;;;;;;;;;6.75;6.00;;;;;;;;5079503;27;45268;-62
2024/03/18 10:50:47;;;;;;;;;3.75;3.75;;;;;;;;5072243;27;45551;-62
2024/03/18 10:53:15;;;;;;;;;4.50;3.00;;;;;;;;5076247;27;45578;-62
2024/03/18 10:55:41;;;;;;;;;4.50;4.25;;;;;;;;5077423;27;46538;-62
2024/03/18 10:58:07;;;;;;;;;6.75;4.25;;;;;;;;5080350;27;45296;-62
2024/03/18 11:00:33;;;;;;;;;4.50;3.75;;;;;;;;5078282;27;45839;-62
2024/03/18 11:02:58;;;;;;;;;8.00;4.75;;;;;;;;5076438;27;45627;-62
2024/03/18 11:05:27;;;;;;;;;7.25;3.25;;;;;;;;5075002;27;46082;-62
2024/03/18 11:07:53;;;;;;;;;4.00;2.80;;;;;;;;5072177;27;45830;-62
2024/03/18 11:10:20;;;;;;;;;6.50;4.75;;;;;;;;5076417;27;45563;-62
2024/03/18 11:12:45;;;;;;;;;3.00;3.00;;;;;;;;5076675;27;45439;-62
2024/03/18 11:15:11;;;;;;;;;4.50;3.75;;;;;;;;5073677;27;46239;-62
2024/03/18 11:17:40;;;;;;;;;7.25;3.25;;;;;;;;5074960;27;45384;-62
2024/03/18 11:20:11;;;;;;;;;6.25;5.00;;;;;;;;5074471;27;45630;-61
2024/03/18 11:22:44;;;;;;;;;6.25;4.50;;;;;;;;5077889;27;45922;-62
2024/03/18 11:25:16;;;;;;;;;4.00;4.00;;;;;;;;5080249;27;45576;-62
2024/03/18 11:27:47;;;;;;;;;3.00;3.00;;;;;;;;5081092;27;45369;-61
2024/03/18 11:30:24;;;;;;;;;7.00;3.25;;;;;;;;5082226;27;45638;-62
2024/03/18 11:32:50;;;;;;;;;3.75;3.00;;;;;;;;5080716;27;45684;-62
2024/03/18 11:35:17;;;;;;;;;3.00;3.00;;;;;;;;5080563;27;46511;-62
2024/03/18 11:37:44;;;;;;;;;3.75;3.75;;;;;;;;5078735;27;45415;-57
2024/03/18 11:40:12;;;;;;;;;4.75;4.00;;;;;;;;5079872;27;45318;-57
2024/03/18 11:42:37;;;;;;;;;4.25;4.00;;;;;;;;5081137;27;45394;-57
2024/03/18 11:45:03;;;;;;;;;7.75;3.75;;;;;;;;5081775;27;46496;-57
2024/03/18 11:47:28;;;;;;;;;6.00;4.00;;;;;;;;5095368;27;45306;-57
2024/03/18 11:50:03;;;;;;;;;2.00;2.00;;;;;;;;5079097;27;45589;-57
2024/03/18 11:52:29;;;;;;;;;3.00;3.00;;;;;;;;5083237;27;45466;-57
2024/03/18 11:54:54;;;;;;;;;0.25;0.25;;;;;;;;5083960;27;46435;-57
2024/03/18 11:57:22;;;;;;;;;1.25;1.25;;;;;;;;5079575;27;45367;-57
2024/03/18 11:59:49;;;;;;;;;2.60;0.00;;;;;;;;5079982;27;45306;-57
2024/03/18 12:02:14;;;;;;;;;2.75;1.75;;;;;;;;5082067;27;45394;-57
2024/03/18 12:04:39;;;;;;;;;4.00;2.25;;;;;;;;5078737;27;45418;-57
2024/03/18 12:07:05;;;;;;;;;2.00;2.00;;;;;;;;5078701;27;45275;-56
2024/03/18 12:09:33;;;;;;;;;4.00;2.00;;;;;;;;5085981;27;45290;-57
2024/03/18 12:12:00;;;;;;;;;1.25;1.25;;;;;;;;5099534;27;45660;-56
2024/03/18 12:14:25;;;;;;;;;2.00;2.00;;;;;;;;5080615;27;45321;-57
2024/03/18 12:16:52;;;;;;;;;7.00;5.00;;;;;;;;5082772;27;45410;-56
2024/03/18 12:19:17;;;;;;;;;1.25;1.00;;;;;;;;5076311;27;45386;-56
2024/03/18 12:21:42;;;;;;;;;3.00;3.00;;;;;;;;5093494;27;45246;-56
2024/03/18 12:29:36;;;;;;;;;1.00;1.00;;;;;;;;5083258;27;45558;-57
2024/03/18 12:32:02;;;;;;;;;1.00;1.00;;;;;;;;5083837;27;45911;-56
2024/03/18 12:34:28;;;;;;;;;2.75;0.25;;;;;;;;5082858;27;45678;-57
2024/03/18 12:36:53;;;;;;;;;1.00;1.00;;;;;;;;5087091;27;45290;-58
2024/03/18 12:39:19;;;;;;;;;1.00;1.00;;;;;;;;5087734;27;45322;-58
2024/03/18 12:41:45;;;;;;;;;4.25;1.00;;;;;;;;5082641;27;45505;-59
2024/03/18 12:44:10;;;;;;;;;1.00;1.00;;;;;;;;5081789;27;45655;-59
2024/03/18 12:46:35;;;;;;;;;4.00;1.00;;;;;;;;5083760;27;45445;-58
2024/03/18 12:49:04;;;;;;;;;0.00;0.00;;;;;;;;5081449;27;45739;-58
2024/03/18 12:51:31;;;;;;;;;1.00;1.00;;;;;;;;5081384;27;45365;-59
2024/03/18 12:53:56;;;;;;;;;1.60;1.00;;;;;;;;5082809;27;46302;-58
2024/03/18 12:56:22;;;;;;;;;1.75;1.50;;;;;;;;5083066;27;45397;-58
2024/03/18 12:58:49;;;;;;;;;1.00;1.00;;;;;;;;5083029;27;45231;-58
2024/03/18 13:01:15;;;;;;;;;1.25;1.25;;;;;;;;5082827;27;45544;-59
2024/03/18 13:03:40;;;;;;;;;1.00;1.00;;;;;;;;5083073;27;46309;-58
2024/03/18 13:06:05;;;;;;;;;1.75;0.50;;;;;;;;5082400;27;45363;-58
2024/03/18 13:08:31;;;;;;;;;3.00;1.50;;;;;;;;5081460;27;45363;-58
2024/03/18 13:10:56;;;;;;;;;1.00;1.00;;;;;;;;5083617;27;45642;-58
2024/03/18 13:13:25;;;;;;;;;1.25;1.00;;;;;;;;5080480;27;45328;-58
2024/03/18 13:15:50;;;;;;;;;1.75;1.00;;;;;;;;5083258;27;45391;-58
2024/03/18 13:18:15;;;;;;;;;1.00;1.00;;;;;;;;5077599;27;45546;-58
2024/03/18 13:20:41;;;;;;;;;1.00;1.00;;;;;;;;5086175;27;45434;-58
2024/03/18 13:23:09;;;;;;;;;0.50;0.00;;;;;;;;5081089;27;46227;-58
2024/03/18 13:25:37;;;;;;;;;0.50;0.25;;;;;;;;5086426;27;45386;-58
2024/03/18 13:28:02;;;;;;;;;2.00;1.00;;;;;;;;5083665;27;45305;-58
2024/03/18 13:30:27;;;;;;;;;1.00;1.00;;;;;;;;5083155;27;45403;-58
2024/03/18 13:32:53;;;;;;;;;0.00;0.00;;;;;;;;5083095;27;45537;-58
2024/03/18 13:35:18;;;;;;;;;3.00;0.00;;;;;;;;5082915;27;45342;-58
2024/03/18 13:37:44;;;;;;;;;0.00;0.00;;;;;;;;5083725;27;45450;-58
2024/03/18 13:40:09;;;;;;;;;1.00;0.00;;;;;;;;5076678;28;45419;-58
2024/03/18 13:42:34;;;;;;;;;0.25;0.00;;;;;;;;5083267;27;45446;-58
2024/03/18 13:45:01;;;;;;;;;0.25;0.25;;;;;;;;5081712;27;45484;-58
2024/03/18 13:47:26;;;;;;;;;0.75;0.75;;;;;;;;5082276;27;45417;-58
2024/03/18 13:49:52;;;;;;;;;0.00;0.00;;;;;;;;5081796;27;45362;-58
2024/03/18 13:52:17;;;;;;;;;1.00;1.00;;;;;;;;5082629;27;46344;-58
2024/03/18 13:54:43;;;;;;;;;4.00;1.50;;;;;;;;5080222;27;45335;-58
2024/03/18 13:57:11;;;;;;;;;1.50;0.00;;;;;;;;5080111;27;45475;-58
2024/03/18 13:59:43;;;;;;;;;0.00;0.00;;;;;;;;5078744;27;46913;-58
2024/03/18 14:02:09;;;;;;;;;0.00;0.00;;;;;;;;5080105;27;46431;-58
2024/03/18 14:04:35;;;;;;;;;0.00;0.00;;;;;;;;5075320;27;45305;-57
2024/03/18 14:07:01;;;;;;;;;1.00;0.00;;;;;;;;5076486;27;45210;-58
2024/03/18 14:09:28;;;;;;;;;0.00;0.00;;;;;;;;5071372;27;45288;-57
2024/03/18 14:11:53;;;;;;;;;2.00;0.00;;;;;;;;5081530;27;46259;-58
2024/03/18 14:14:19;;;;;;;;;0.00;0.00;;;;;;;;5079461;27;45592;-57
2024/03/18 14:16:44;;;;;;;;;0.50;0.00;;;;;;;;5075602;27;45293;-58
2024/03/18 14:19:10;;;;;;;;;1.00;0.00;;;;;;;;5078298;27;45257;-58
2024/03/18 14:21:35;;;;;;;;;2.50;0.00;;;;;;;;5083188;27;45367;-58
2024/03/18 14:24:00;;;;;;;;;1.00;1.00;;;;;;;;5080095;27;45532;-58
2024/03/18 14:26:25;;;;;;;;;0.50;0.50;;;;;;;;5082379;27;45493;-58
2024/03/18 14:28:52;;;;;;;;;0.00;0.00;;;;;;;;5078656;27;45445;-57